San Gabriel, CA (91775)

11:13 PM PST on February 28, 2015 (GMT -0800)
San Marino | Change Station
CLOSE
Current Station
Personal Weather Station
Location: San Marino, CA
Elevation: 574 ft
Nearby Weather Stations

Elev 574 ft 34.12 °N, 118.11 °W | Updated 4 seconds ago

Mostly Cloudy
Mostly Cloudy
52.3 °F
Feels Like 52.3 °F
N
2.0
Wind Variable Wind from WSW
Gusts 3.0 mph

Today
High -- | Low -- °F
--% Chance of Precip.
Yesterday
High -- | Low -- °F
Precip. -- in
6:22 AM 5:47 PM
Waxing Gibbous, 83% visible
Pressure 29.91 in
Visibility 10.0 miles
Clouds Few 6000 ft
Scattered Clouds 8000 ft
Mostly Cloudy 10000 ft
Dew Point 49 °F
Humidity 88%
Rainfall 0.02 in
Snow Depth Not available.
UV 0 out of 12
Pollen 8.50 out of 12
Air Quality Not available.
Flu Activity Not available.
METAR KCQT 010647Z AUTO 00000KT 10SM FEW060 SCT080 BKN100 12/09 A2991 RMK AO2 SLP128 T01170089

More Conditions Fewer Conditions

Pressure 29.91 in
Visibility 10.0 miles
Clouds Few 6000 ft
Scattered Clouds 8000 ft
Mostly Cloudy 10000 ft
Dew Point 49 °F
Humidity 88%
Rainfall 0.02 in
Snow Depth Not available.
UV 0 out of 12
Pollen 8.50 out of 12
Air Quality Not available.
Flu Activity Not available.
METAR KCQT 010647Z AUTO 00000KT 10SM FEW060 SCT080 BKN100 12/09 A2991 RMK AO2 SLP128 T01170089

More Conditions Fewer Conditions

10-Day Weather Forecast

Almanac

Astronomy

Feb. 28, 2015 Rise Set
Actual Time
Civil Twilight
Nautical Twilight
Astronomical Twilight
Moon
Length of Visible Light
Length of Day
Tomorrow will be .
, % of the Moon is Illuminated

Today's Extremes

State Highs State Lows

Community

WunderPhotos

Upload Photos

1,801,347 photos uploaded!

WunderBlogs® & News

Nearby

Air Quality

  Air Quality AQ Index Pollutant
Not available.

Snow Depth

Station Depth Elevation

Earthquake Activity

City Distance Mag. Time & Date
Minimum magnitude displayed is 2.5.

Coastal Water Temperatures

Place Temperature

Nearby Weather Stations